Time;durP1;ratioP1;P1;durP2;ratioP2;P2;SDS_P1;SDS_P2;PMS_P1;PMS_P2;Temp;Humidity;BMP_temperature;BMP_pressure;BME280_temperature;BME280_humidity;BME280_pressure;Samples;Min_cycle;Max_cycle;Signal;HPM_P1;HPM_P2
2023/03/26 00:00:25;;;;;;;17.25;6.10;;;;;;;6.80;100.00;100550.09;1048021;28;20748;-74
2023/03/26 00:00:58;;;;;;;18.77;5.18;;;;;;;6.77;100.00;100547.03;1043810;28;20657;-75
2023/03/26 00:01:35;;;;;;;24.42;5.38;;;;;;;6.77;100.00;100545.19;1047068;28;20298;-75
2023/03/26 00:02:07;;;;;;;17.05;5.03;;;;;;;6.78;100.00;100543.34;1047790;28;20294;-75
2023/03/26 00:02:38;;;;;;;17.90;6.43;;;;;;;6.76;100.00;100550.69;1047934;28;20294;-75
2023/03/26 00:03:11;;;;;;;19.98;6.18;;;;;;;6.76;100.00;100540.91;1047778;28;20823;-75
2023/03/26 00:03:45;;;;;;;21.80;5.25;;;;;;;6.76;100.00;100546.22;1043546;28;20310;-75
2023/03/26 00:04:20;;;;;;;21.48;4.80;;;;;;;6.83;100.00;100544.38;1043320;28;20302;-75
2023/03/26 00:04:52;;;;;;;22.83;7.15;;;;;;;6.86;100.00;100550.31;1035598;28;20296;-75
2023/03/26 00:05:23;;;;;;;22.67;5.70;;;;;;;6.74;100.00;100542.94;1035655;28;20297;-75
2023/03/26 00:06:07;;;;;;;28.52;5.78;;;;;;;6.78;100.00;100541.53;1043696;28;20303;-75
2023/03/26 00:06:40;;;;;;;17.45;6.10;;;;;;;6.83;100.00;100546.22;1039683;28;20292;-75
2023/03/26 00:07:12;;;;;;;30.27;7.57;;;;;;;6.82;100.00;100549.88;1039412;28;20304;-74
2023/03/26 00:07:44;;;;;;;25.52;5.53;;;;;;;6.78;100.00;100543.34;1039477;28;20323;-74
2023/03/26 00:08:16;;;;;;;18.85;5.63;;;;;;;6.78;100.00;100549.47;1040272;28;20346;-74
2023/03/26 00:08:48;;;;;;;25.83;6.63;;;;;;;6.81;100.00;100554.34;1040075;28;20980;-74
2023/03/26 00:09:20;;;;;;;24.73;5.60;;;;;;;6.78;100.00;100548.66;1038764;28;20308;-74
2023/03/26 00:09:52;;;;;;;17.15;5.75;;;;;;;6.80;100.00;100543.97;1039484;28;20299;-74
2023/03/26 00:10:24;;;;;;;23.92;5.15;;;;;;;6.82;100.00;100550.69;1039970;28;20307;-74
2023/03/26 00:10:55;;;;;;;13.50;5.43;;;;;;;6.81;100.00;100548.25;1043223;28;20390;-74
2023/03/26 00:11:28;;;;;;;22.10;6.82;;;;;;;6.78;100.00;100548.66;1043998;28;20298;-74
2023/03/26 00:11:59;;;;;;;25.52;5.65;;;;;;;6.82;100.00;100544.59;1044501;28;20349;-74
2023/03/26 00:12:31;;;;;;;17.42;4.72;;;;;;;6.80;100.00;100546.63;1044292;28;20303;-74
2023/03/26 00:13:04;;;;;;;25.30;6.47;;;;;;;6.83;100.00;100554.16;1047714;28;20299;-74
2023/03/26 00:13:36;;;;;;;15.48;5.93;;;;;;;6.83;100.00;100551.50;1041993;28;20306;-74
2023/03/26 00:14:12;;;;;;;23.08;6.15;;;;;;;6.78;100.00;100551.28;1039353;28;20300;-74
2023/03/26 00:14:45;;;;;;;24.50;5.68;;;;;;;6.77;100.00;100547.84;1040859;28;20727;-75
2023/03/26 00:15:16;;;;;;;15.95;5.35;;;;;;;6.79;100.00;100547.63;1046304;28;20314;-74
2023/03/26 00:15:48;;;;;;;22.13;5.05;;;;;;;6.80;100.00;100557.22;1047764;28;20314;-74
2023/03/26 00:16:20;;;;;;;25.77;7.65;;;;;;;6.75;100.00;100555.16;1043660;28;20299;-75
2023/03/26 00:16:52;;;;;;;18.52;5.13;;;;;;;6.74;100.00;100553.53;1043129;28;20338;-75
2023/03/26 00:17:24;;;;;;;14.18;5.78;;;;;;;6.75;100.00;100557.00;1044161;28;20805;-75
2023/03/26 00:17:55;;;;;;;23.10;6.22;;;;;;;6.74;100.00;100555.34;1042828;28;20336;-75
2023/03/26 00:18:30;;;;;;;24.42;6.90;;;;;;;6.74;100.00;100556.19;1043396;28;20303;-75
2023/03/26 00:19:02;;;;;;;17.60;5.47;;;;;;;6.76;100.00;100555.97;1042808;28;20735;-75
2023/03/26 00:19:34;;;;;;;13.65;5.20;;;;;;;6.74;100.00;100552.72;1043548;28;20291;-75
2023/03/26 00:20:07;;;;;;;16.73;4.85;;;;;;;6.78;100.00;100557.41;1043622;28;20295;-75
2023/03/26 00:20:40;;;;;;;21.05;5.18;;;;;;;6.75;100.00;100559.63;1043554;28;20288;-75
2023/03/26 00:21:14;;;;;;;16.55;6.00;;;;;;;6.74;100.00;100555.34;1043397;28;20303;-75
2023/03/26 00:21:47;;;;;;;15.70;5.25;;;;;;;6.75;100.00;100549.06;1041573;28;20284;-75
2023/03/26 00:22:18;;;;;;;14.95;4.68;;;;;;;6.86;100.00;100561.72;1039199;28;20674;-75
2023/03/26 00:22:50;;;;;;;22.13;6.03;;;;;;;6.83;100.00;100556.81;1039188;28;20794;-75
2023/03/26 00:23:21;;;;;;;21.80;6.25;;;;;;;6.78;100.00;100564.53;1040295;28;20623;-75
2023/03/26 00:23:55;;;;;;;16.38;5.72;;;;;;;6.79;100.00;100566.16;1043612;28;20295;-75
2023/03/26 00:24:28;;;;;;;18.77;5.28;;;;;;;6.81;100.00;100564.13;1042876;28;20350;-75
2023/03/26 00:25:00;;;;;;;14.52;5.80;;;;;;;6.78;100.00;100560.06;1042672;28;20858;-75
2023/03/26 00:25:33;;;;;;;23.90;6.53;;;;;;;6.79;100.00;100566.16;1042583;28;20328;-75
2023/03/26 00:26:09;;;;;;;19.55;4.95;;;;;;;6.77;100.00;100568.19;1043609;28;20330;-75
2023/03/26 00:26:41;;;;;;;14.23;4.85;;;;;;;6.76;100.00;100563.91;1039348;28;20296;-74
2023/03/26 00:27:13;;;;;;;26.83;8.93;;;;;;;6.73;100.00;100561.66;1043325;28;20307;-75
2023/03/26 00:27:45;;;;;;;14.15;5.60;;;;;;;6.74;100.00;100558.00;1046187;28;20296;-75
2023/03/26 00:28:20;;;;;;;17.90;6.45;;;;;;;6.75;100.00;100559.63;1040890;28;20284;-75
2023/03/26 00:28:51;;;;;;;19.90;5.85;;;;;;;6.80;100.00;100562.50;1043559;28;20307;-75
2023/03/26 00:29:23;;;;;;;20.38;5.47;;;;;;;6.81;100.00;100566.78;1045928;28;20340;-75
2023/03/26 00:29:55;;;;;;;22.00;7.72;;;;;;;6.81;100.00;100564.94;1043615;28;20291;-75
2023/03/26 00:30:26;;;;;;;19.17;5.55;;;;;;;6.77;100.00;100554.97;1044849;28;20338;-75
2023/03/26 00:31:00;;;;;;;27.25;6.20;;;;;;;6.80;100.00;100557.22;1044726;28;20291;-75
2023/03/26 00:31:32;;;;;;;16.98;5.65;;;;;;;6.82;100.00;100563.13;1043832;28;20370;-75
2023/03/26 00:32:03;;;;;;;17.92;6.72;;;;;;;6.81;100.00;100557.00;1040436;28;20311;-75
2023/03/26 00:32:35;;;;;;;18.08;5.43;;;;;;;6.82;100.00;100566.59;1039268;28;20383;-75
2023/03/26 00:33:07;;;;;;;19.40;6.30;;;;;;;6.84;100.00;100558.44;1038312;28;20300;-75
2023/03/26 00:33:40;;;;;;;24.10;6.05;;;;;;;6.82;100.00;100561.28;1043223;28;20789;-75
2023/03/26 00:34:14;;;;;;;18.77;6.07;;;;;;;6.80;100.00;100552.72;1036469;28;20300;-74
2023/03/26 00:34:46;;;;;;;24.15;6.80;;;;;;;6.80;100.00;100560.66;1036741;28;20309;-75
2023/03/26 00:35:17;;;;;;;18.30;5.13;;;;;;;6.80;100.00;100562.50;1043483;28;20298;-75
2023/03/26 00:35:53;;;;;;;21.50;5.63;;;;;;;6.80;100.00;100557.22;1040657;28;20307;-75
2023/03/26 00:36:25;;;;;;;20.33;5.82;;;;;;;6.84;100.00;100553.16;1044322;28;20738;-75
2023/03/26 00:37:01;;;;;;;23.95;7.03;;;;;;;6.78;100.00;100554.75;1046828;28;21077;-75
2023/03/26 00:37:32;;;;;;;21.25;6.05;;;;;;;6.82;100.00;100560.47;1043687;28;20295;-75
2023/03/26 00:38:04;;;;;;;18.92;5.63;;;;;;;6.81;100.00;100556.19;1041026;28;20323;-75
2023/03/26 00:38:37;;;;;;;18.08;5.97;;;;;;;6.75;100.00;100559.63;1039368;28;20300;-75
2023/03/26 00:39:09;;;;;;;25.02;5.25;;;;;;;6.75;100.00;100564.94;1039152;28;20736;-75
2023/03/26 00:39:41;;;;;;;18.05;5.45;;;;;;;6.79;100.00;100550.28;1039420;28;20299;-75
2023/03/26 00:40:13;;;;;;;17.77;4.88;;;;;;;6.80;100.00;100557.22;1040813;28;20300;-75
2023/03/26 00:40:46;;;;;;;22.48;5.70;;;;;;;6.75;100.00;100555.16;1043364;28;20797;-76
2023/03/26 00:41:23;;;;;;;16.10;6.15;;;;;;;6.77;100.00;100553.13;1039338;28;20303;-75
2023/03/26 00:41:55;;;;;;;21.30;5.32;;;;;;;6.81;100.00;100558.84;1036207;28;21078;-75
2023/03/26 00:42:28;;;;;;;29.50;5.97;;;;;;;6.92;100.00;100560.13;1040504;28;20873;-75
2023/03/26 00:43:01;;;;;;;21.88;5.07;;;;;;;6.87;100.00;100557.25;1040268;28;20797;-75
2023/03/26 00:43:34;;;;;;;13.43;5.03;;;;;;;6.83;100.00;100556.81;1045275;28;20283;-75
2023/03/26 00:44:06;;;;;;;19.17;6.32;;;;;;;6.83;100.00;100556.81;1043531;28;20283;-75
2023/03/26 00:44:37;;;;;;;14.98;4.68;;;;;;;6.80;100.00;100551.91;1038942;28;20390;-75
2023/03/26 00:45:10;;;;;;;23.02;5.55;;;;;;;6.78;100.00;100549.47;1034868;28;20312;-75
2023/03/26 00:45:41;;;;;;;13.43;5.50;;;;;;;6.78;100.00;100548.66;1035537;28;20509;-75
2023/03/26 00:46:13;;;;;;;26.27;6.22;;;;;;;6.76;100.00;100546.22;1035678;28;20296;-75
2023/03/26 00:46:45;;;;;;;21.02;5.40;;;;;;;6.80;100.00;100549.25;1039304;28;20810;-75
2023/03/26 00:47:17;;;;;;;18.98;5.43;;;;;;;6.78;100.00;100548.66;1038359;28;20305;-75
2023/03/26 00:47:49;;;;;;;20.08;6.10;;;;;;;6.80;100.00;100551.91;1039493;28;20311;-75
2023/03/26 00:48:21;;;;;;;13.05;4.63;;;;;;;6.77;100.00;100547.03;1039725;28;20902;-75
2023/03/26 00:49:13;;;;;;;14.27;4.63;;;;;;;6.84;100.00;100542.56;1046839;28;20393;-76
2023/03/26 00:49:45;;;;;;;21.98;4.93;;;;;;;6.85;100.00;100540.72;1047734;28;20406;-76
2023/03/26 00:50:17;;;;;;;21.30;5.43;;;;;;;6.82;100.00;100545.41;1046994;28;20439;-75
2023/03/26 00:50:49;;;;;;;21.20;5.55;;;;;;;6.87;100.00;100541.38;1044771;28;20302;-75
2023/03/26 00:51:21;;;;;;;22.52;5.72;;;;;;;6.82;100.00;100547.22;1035422;28;20860;-75
2023/03/26 00:51:52;;;;;;;26.20;5.97;;;;;;;6.82;100.00;100540.09;1039256;28;20679;-75
2023/03/26 00:52:27;;;;;;;16.73;5.28;;;;;;;6.85;100.00;100544.22;1039321;28;20666;-75
2023/03/26 00:52:58;;;;;;;21.73;5.18;;;;;;;6.77;100.00;100542.53;1040348;28;20658;-75
2023/03/26 00:53:31;;;;;;;17.13;5.20;;;;;;;6.77;100.00;100544.38;1035688;28;20810;-75
2023/03/26 00:54:07;;;;;;;23.85;4.63;;;;;;;6.81;100.00;100548.25;1036169;28;20308;-75
2023/03/26 00:54:39;;;;;;;19.27;5.30;;;;;;;6.78;100.00;100543.34;1035206;28;20312;-75
2023/03/26 00:55:11;;;;;;;18.27;4.60;;;;;;;6.76;100.00;100540.09;1031086;28;20786;-75
2023/03/26 00:55:45;;;;;;;17.77;5.32;;;;;;;6.72;100.00;100542.31;1036373;28;20300;-75
2023/03/26 00:56:18;;;;;;;23.25;5.25;;;;;;;6.72;100.00;100544.97;1041105;28;20674;-75
2023/03/26 00:56:49;;;;;;;19.45;4.25;;;;;;;6.71;100.00;100547.81;1034845;28;20834;-75
2023/03/26 00:57:21;;;;;;;17.42;4.60;;;;;;;6.70;100.00;100540.91;1035186;28;20288;-75
2023/03/26 00:58:09;;;;;;;22.05;4.55;;;;;;;6.70;100.00;100540.91;1034898;28;20343;-75
2023/03/26 00:58:41;;;;;;;18.20;5.10;;;;;;;6.65;100.00;100543.31;1038123;28;20289;-75
2023/03/26 00:59:13;;;;;;;23.42;5.85;;;;;;;6.68;100.00;100545.56;1041978;28;20312;-75
2023/03/26 00:59:44;;;;;;;21.92;5.93;;;;;;;6.70;100.00;100541.72;1043975;28;20804;-75
2023/03/26 01:00:17;;;;;;;15.45;4.90;;;;;;;6.75;100.00;100543.75;1043546;28;20292;-75
2023/03/26 01:00:58;;;;;;;27.67;5.38;;;;;;;6.73;100.00;100546.59;1038873;28;20292;-75
2023/03/26 01:01:31;;;;;;;;;;;;;;;6.70;100.00;100538.25;1036009;28;20304;-75
2023/03/26 01:02:03;;;;;;;23.67;3.53;;;;;;;6.72;100.00;100539.69;1034792;28;19921;-75
2023/03/26 01:02:35;;;;;;;24.02;5.55;;;;;;;6.75;100.00;100533.16;1039305;28;20300;-75
2023/03/26 01:03:11;;;;;;;14.95;5.45;;;;;;;6.74;100.00;100536.84;1032359;28;20745;-75
2023/03/26 01:03:44;;;;;;;21.05;5.10;;;;;;;6.70;100.00;100541.72;1036646;28;20304;-75
2023/03/26 01:04:38;;;;;;;12.75;4.32;;;;;;;6.66;100.00;100535.19;1031309;28;20405;-75
2023/03/26 01:05:32;;;;;;;25.00;6.57;;;;;;;6.71;100.00;100534.59;1040296;28;20318;-75
2023/03/26 01:06:07;;;;;;;14.13;4.22;;;;;;;6.65;100.00;100532.72;1049892;28;20294;-75
2023/03/26 01:06:40;;;;;;;27.65;5.88;;;;;;;6.64;100.00;100525.81;1048859;28;20310;-76
2023/03/26 01:07:20;;;;;;;18.55;5.85;;;;;;;6.71;100.00;100531.94;1041095;28;20303;-75
2023/03/26 01:07:52;;;;;;;24.13;7.43;;;;;;;6.71;100.00;100526.66;1040174;28;20296;-75
2023/03/26 01:08:29;;;;;;;20.42;7.43;;;;;;;6.70;100.00;100531.13;1041281;28;20291;-75
2023/03/26 01:09:06;;;;;;;13.43;4.53;;;;;;;6.71;100.00;100531.94;1041189;28;20794;-75
2023/03/26 01:09:43;;;;;;;19.02;5.60;;;;;;;6.73;100.00;100527.25;1037212;28;20300;-75
2023/03/26 01:10:15;;;;;;;20.20;5.43;;;;;;;6.70;100.00;100531.13;1039011;28;20814;-75
2023/03/26 01:10:51;;;;;;;23.77;5.22;;;;;;;6.71;100.00;100531.94;1031836;28;20309;-75
2023/03/26 01:11:26;;;;;;;18.52;5.22;;;;;;;6.71;100.00;100527.47;1033958;28;20328;-75
2023/03/26 01:12:00;;;;;;;18.52;5.78;;;;;;;6.71;100.00;100529.28;1039063;28;20304;-76
2023/03/26 01:12:32;;;;;;;24.02;5.57;;;;;;;6.71;100.00;100524.00;1039475;28;20296;-75
2023/03/26 01:13:03;;;;;;;22.98;5.00;;;;;;;6.69;100.00;100528.69;1038907;28;20374;-75
2023/03/26 01:13:36;;;;;;;12.30;3.97;;;;;;;6.69;100.00;100528.69;1038995;28;20308;-76
2023/03/26 01:14:15;;;;;;;10.77;4.80;;;;;;;6.65;100.00;100524.78;1043095;28;20385;-75
2023/03/26 01:14:47;;;;;;;22.10;5.03;;;;;;;6.63;100.00;100524.19;1043509;28;20306;-75
2023/03/26 01:15:21;;;;;;;12.18;4.13;;;;;;;6.62;100.00;100527.84;1041055;28;20312;-76
2023/03/26 01:15:53;;;;;;;21.88;5.20;;;;;;;6.58;100.00;100521.31;1040931;28;20393;-75
2023/03/26 01:16:30;;;;;;;15.75;4.43;;;;;;;6.51;100.00;100523.91;1043466;28;20825;-75
2023/03/26 01:17:05;;;;;;;19.40;4.60;;;;;;;6.49;100.00;100524.13;1034695;28;20320;-75
2023/03/26 01:17:37;;;;;;;20.98;5.40;;;;;;;6.53;100.00;100524.53;1032943;28;20830;-75
2023/03/26 01:18:12;;;;;;;13.90;4.90;;;;;;;6.58;100.00;100527.44;1031478;28;20652;-76
2023/03/26 01:18:44;;;;;;;15.65;4.47;;;;;;;6.50;100.00;100525.75;1035229;28;20835;-75
2023/03/26 01:19:24;;;;;;;17.10;4.45;;;;;;;6.48;100.00;100527.78;1044339;28;20287;-75
2023/03/26 01:20:04;;;;;;;17.85;5.05;;;;;;;6.54;100.00;100520.06;1044517;28;20291;-75
2023/03/26 01:20:45;;;;;;;17.50;4.57;;;;;;;6.50;100.00;100523.09;1043751;28;20047;-75
2023/03/26 01:21:21;;;;;;;;;;;;;;;6.49;100.00;100513.53;1039718;28;20332;-75
2023/03/26 01:21:52;;;;;;;23.17;5.85;;;;;;;6.47;100.00;100514.75;1043240;28;19921;-75
2023/03/26 01:22:26;;;;;;;21.65;4.50;;;;;;;6.47;100.00;100518.19;1039252;28;20297;-75
2023/03/26 01:23:04;;;;;;;16.88;4.80;;;;;;;6.46;100.00;100524.50;1040410;28;20299;-76
2023/03/26 01:23:45;;;;;;;20.23;4.78;;;;;;;6.47;100.00;100515.56;1041697;28;20337;-75
2023/03/26 01:24:17;;;;;;;19.65;5.90;;;;;;;6.46;100.00;100524.50;1033981;28;20391;-75
2023/03/26 01:24:52;;;;;;;12.38;3.63;;;;;;;6.48;100.00;100519.84;1037931;28;20292;-75
2023/03/26 01:25:27;;;;;;;10.45;3.25;;;;;;;6.46;100.00;100511.28;1039537;28;20328;-75
2023/03/26 01:26:30;;;;;;;19.35;4.32;;;;;;;6.62;100.00;100509.31;1041908;28;20310;-75
2023/03/26 01:27:16;;;;;;;21.42;4.32;;;;;;;6.61;100.00;100520.91;1038644;28;20304;-75
2023/03/26 01:27:49;;;;;;;19.63;4.13;;;;;;;6.54;100.00;100515.56;1038933;28;20314;-75
2023/03/26 01:28:24;;;;;;;9.88;3.80;;;;;;;6.54;100.00;100515.56;1039180;28;20300;-75
2023/03/26 01:28:58;;;;;;;11.32;4.25;;;;;;;6.51;100.00;100511.50;1038026;28;20820;-75
2023/03/26 01:29:52;;;;;;;15.48;4.18;;;;;;;6.49;100.00;100512.72;1040766;28;20307;-75
2023/03/26 01:31:05;;;;;;;13.48;5.22;;;;;;;6.54;100.00;100514.75;1035105;28;20288;-75
2023/03/26 01:32:12;;;;;;;18.63;4.22;;;;;;;6.47;100.00;100512.09;1035113;28;20329;-75
2023/03/26 01:33:14;;;;;;;10.60;3.10;;;;;;;6.51;100.00;100511.50;1030917;28;20309;-75
2023/03/26 01:34:11;;;;;;;11.75;2.63;;;;;;;6.53;100.00;100510.47;1026596;28;20313;-75
2023/03/26 01:34:42;;;;;;;12.70;4.47;;;;;;;6.53;100.00;100513.13;1026606;28;20298;-75
2023/03/26 01:35:29;;;;;;;21.48;4.20;;;;;;;6.45;100.00;100507.00;1024046;28;20330;-75
2023/03/26 01:36:08;;;;;;;12.52;4.25;;;;;;;6.40;100.00;100509.44;1043546;28;20295;-75
2023/03/26 01:36:56;;;;;;;16.85;3.15;;;;;;;6.40;100.00;100505.97;1039347;28;20299;-75
2023/03/26 01:37:36;;;;;;;8.57;2.90;;;;;;;6.36;100.00;100505.56;1043119;28;20295;-76
2023/03/26 01:38:29;;;;;;;18.92;5.90;;;;;;;6.36;100.00;100500.25;1034933;28;20308;-76
2023/03/26 01:39:27;;;;;;;18.70;5.03;;;;;;;6.34;100.00;100504.94;1038536;28;20804;-75
2023/03/26 01:40:06;;;;;;;16.35;3.00;;;;;;;6.33;100.00;100503.31;1040341;28;20300;-75
2023/03/26 01:40:51;;;;;;;10.65;4.13;;;;;;;6.47;100.00;100497.03;1041945;28;20295;-75
2023/03/26 01:41:28;;;;;;;21.02;4.10;;;;;;;6.55;100.00;100503.16;1035464;28;20297;-75
2023/03/26 01:42:09;;;;;;;22.67;3.78;;;;;;;6.57;100.00;100501.94;1040585;28;20302;-75
2023/03/26 01:42:47;;;;;;;12.65;3.65;;;;;;;6.45;100.00;100501.72;1039290;28;20690;-75
2023/03/26 01:43:45;;;;;;;16.88;4.55;;;;;;;6.40;100.00;100498.84;1034965;28;20301;-75
2023/03/26 01:44:34;;;;;;;12.18;3.70;;;;;;;6.33;100.00;100495.38;1036580;28;20347;-75
2023/03/26 01:45:07;;;;;;;11.52;3.55;;;;;;;6.30;100.00;100497.56;1038741;28;20310;-75
2023/03/26 01:45:41;;;;;;;10.38;2.58;;;;;;;6.27;100.00;100490.03;1033466;28;20315;-75
2023/03/26 01:46:14;;;;;;;13.05;3.90;;;;;;;6.35;100.00;100490.69;1031951;28;20949;-75
2023/03/26 01:46:46;;;;;;;13.90;3.50;;;;;;;6.28;100.00;100489.00;1037553;28;20304;-75
2023/03/26 01:47:18;;;;;;;11.32;2.75;;;;;;;6.20;100.00;100488.16;1034780;28;20305;-75
2023/03/26 01:47:50;;;;;;;9.60;2.83;;;;;;;6.12;100.00;100490.97;1039685;28;20299;-75
2023/03/26 01:48:29;;;;;;;21.02;4.15;;;;;;;6.07;100.00;100497.88;1042482;28;20360;-75
2023/03/26 01:49:03;;;;;;;12.13;3.58;;;;;;;6.01;100.00;100493.34;1042135;28;20295;-75
2023/03/26 01:49:35;;;;;;;18.58;3.55;;;;;;;6.02;100.00;100484.41;1041506;28;20415;-75
2023/03/26 01:50:07;;;;;;;14.55;3.67;;;;;;;6.03;100.00;100491.34;1036645;28;20301;-75
2023/03/26 01:50:39;;;;;;;15.93;4.03;;;;;;;6.01;100.00;100483.59;1035833;28;20305;-75
2023/03/26 01:51:12;;;;;;;16.73;4.03;;;;;;;6.03;100.00;100486.88;1035302;28;20284;-75
2023/03/26 01:51:44;;;;;;;19.35;4.18;;;;;;;6.02;100.00;100489.69;1035708;28;20319;-76
2023/03/26 01:52:20;;;;;;;17.30;4.25;;;;;;;6.06;100.00;100480.38;1035555;28;20791;-75
2023/03/26 01:52:51;;;;;;;16.38;3.80;;;;;;;6.02;100.00;100481.75;1035335;28;20312;-75
2023/03/26 01:53:23;;;;;;;15.50;3.28;;;;;;;5.94;100.00;100492.50;1034987;28;20304;-75
2023/03/26 01:53:55;;;;;;;12.00;3.60;;;;;;;5.83;100.00;100483.25;1033637;28;20297;-76
2023/03/26 01:54:29;;;;;;;7.68;3.08;;;;;;;5.79;100.00;100480.19;1036172;28;20297;-76
2023/03/26 01:55:01;;;;;;;12.30;2.40;;;;;;;5.80;100.00;100481.00;1039454;28;20335;-75
2023/03/26 01:55:56;;;;;;;19.13;3.40;;;;;;;5.75;100.00;100478.94;1037252;28;20293;-75
2023/03/26 01:56:41;;;;;;;12.07;3.53;;;;;;;5.79;100.00;100477.56;1035014;28;20783;-75
2023/03/26 01:57:23;;;;;;;8.05;2.65;;;;;;;5.91;100.00;100482.31;1033932;28;20315;-75
2023/03/26 01:58:12;;;;;;;10.68;4.10;;;;;;;5.93;100.00;100475.00;1034911;28;20305;-76
2023/03/26 01:58:55;;;;;;;9.90;3.13;;;;;;;5.86;100.00;100470.47;1043578;28;20295;-75
2023/03/26 01:59:42;;;;;;;9.18;2.83;;;;;;;5.87;100.00;100482.69;1045956;28;20302;-75
2023/03/26 02:00:24;;;;;;;13.23;3.75;;;;;;;5.85;100.00;100476.78;1043594;28;20742;-75
2023/03/26 02:01:04;;;;;;;11.15;3.20;;;;;;;5.87;100.00;100473.94;1042523;28;20299;-75
2023/03/26 02:01:44;;;;;;;15.63;3.40;;;;;;;5.83;100.00;100470.88;1045779;28;20307;-75
2023/03/26 02:02:38;;;;;;;11.13;2.67;;;;;;;5.87;100.00;100472.09;1039512;28;20064;-75
2023/03/26 02:03:20;;;;;;;8.63;4.90;;;;;;;5.86;100.00;100469.66;1038983;28;20025;-75
2023/03/26 02:04:10;;;;;;;8.52;2.22;;;;;;;6.01;100.00;100467.72;1036126;28;20301;-75
2023/03/26 02:04:56;;;;;;;13.93;3.05;;;;;;;5.99;100.00;100468.94;1030812;28;20324;-75
2023/03/26 02:05:32;;;;;;;14.48;2.97;;;;;;;5.99;100.00;100468.94;1028562;28;20302;-75
2023/03/26 02:06:14;;;;;;;14.02;2.83;;;;;;;6.04;100.00;100466.53;1034911;28;20347;-76
2023/03/26 02:06:50;;;;;;;13.88;3.33;;;;;;;6.01;100.00;100467.72;1043055;28;20307;-75
2023/03/26 02:08:10;;;;;;;12.25;4.32;;;;;;;6.11;100.00;100472.69;1038373;28;20303;-75
2023/03/26 02:09:00;;;;;;;7.30;2.92;;;;;;;6.25;100.00;100461.13;1038366;28;20391;-75
2023/03/26 02:09:38;;;;;;;11.48;2.95;;;;;;;6.11;100.00;100468.19;1036606;28;20311;-76
2023/03/26 02:10:17;;;;;;;16.13;3.28;;;;;;;6.09;100.00;100464.94;1036051;28;20316;-75
2023/03/26 02:10:53;;;;;;;8.85;3.80;;;;;;;6.15;100.00;100463.34;1034947;28;20304;-76
2023/03/26 02:11:25;;;;;;;11.30;2.63;;;;;;;6.21;100.00;100467.81;1037721;28;20378;-75
2023/03/26 02:12:05;;;;;;;15.73;4.72;;;;;;;6.11;100.00;100467.38;1037823;28;20792;-75
2023/03/26 02:12:37;;;;;;;17.70;3.65;;;;;;;6.18;100.00;100468.22;1040506;28;20447;-75
2023/03/26 02:13:11;;;;;;;15.70;3.95;;;;;;;6.19;100.00;100464.56;1041169;28;20307;-75
2023/03/26 02:13:44;;;;;;;12.98;3.25;;;;;;;6.24;100.00;100456.84;1043278;28;20298;-75
2023/03/26 02:14:16;;;;;;;15.25;3.40;;;;;;;6.39;100.00;100465.47;1039728;28;20299;-75
2023/03/26 02:14:48;;;;;;;12.23;3.47;;;;;;;6.38;100.00;100463.84;1043996;28;20302;-75
2023/03/26 02:15:21;;;;;;;22.17;5.68;;;;;;;6.34;100.00;100459.16;1047234;28;20313;-75
2023/03/26 02:16:00;;;;;;;15.30;4.15;;;;;;;6.30;100.00;100465.81;1042687;28;20300;-75
2023/03/26 02:16:32;;;;;;;7.72;2.65;;;;;;;6.22;100.00;100456.25;1045254;28;20284;-76
2023/03/26 02:17:04;;;;;;;10.63;3.45;;;;;;;6.29;100.00;100459.72;1038550;28;20386;-76
2023/03/26 02:17:39;;;;;;;10.55;5.32;;;;;;;6.34;100.00;100459.97;1038860;28;20302;-75
2023/03/26 02:18:12;;;;;;;11.13;3.67;;;;;;;6.25;100.00;100461.13;1039881;28;20302;-76
2023/03/26 02:18:46;;;;;;;13.63;4.40;;;;;;;6.26;100.00;100454.00;1041520;28;20383;-76
2023/03/26 02:19:20;;;;;;;13.77;5.25;;;;;;;6.26;100.00;100452.19;1047046;28;20302;-75
2023/03/26 02:19:53;;;;;;;9.85;4.60;;;;;;;6.28;100.00;100458.09;1047230;28;20372;-76
2023/03/26 02:20:28;;;;;;;13.27;3.47;;;;;;;6.28;100.00;100458.09;1041880;28;20303;-75
2023/03/26 02:21:02;;;;;;;8.32;3.60;;;;;;;6.31;100.00;100452.44;1036079;28;20339;-75
2023/03/26 02:21:34;;;;;;;24.25;4.78;;;;;;;6.31;100.00;100448.97;1043409;28;20827;-75
2023/03/26 02:22:09;;;;;;;22.80;4.30;;;;;;;6.35;100.00;100452.84;1044290;28;20303;-75
2023/03/26 02:22:44;;;;;;;10.88;4.57;;;;;;;6.32;100.00;100443.47;1040079;28;20310;-76
2023/03/26 02:23:19;;;;;;;13.95;4.57;;;;;;;6.27;100.00;100443.22;1041425;28;20402;-75
2023/03/26 02:24:01;;;;;;;11.10;4.00;;;;;;;6.35;100.00;100443.06;1034842;28;20897;-75
2023/03/26 02:24:37;;;;;;;20.13;4.78;;;;;;;6.34;100.00;100444.09;1045162;28;20299;-75
2023/03/26 02:25:11;;;;;;;20.27;5.07;;;;;;;6.39;100.00;100444.31;1039758;28;20300;-75
2023/03/26 02:25:43;;;;;;;14.50;3.88;;;;;;;6.53;100.00;100442.50;1037946;28;20694;-75
2023/03/26 02:26:17;;;;;;;15.13;5.05;;;;;;;6.42;100.00;100440.44;1042424;28;20299;-75
2023/03/26 02:27:11;;;;;;;15.95;6.05;;;;;;;6.37;100.00;100462.22;1034385;28;20301;-75
2023/03/26 02:27:45;;;;;;;22.88;6.57;;;;;;;6.38;100.00;100457.75;1038640;28;20701;-75
2023/03/26 02:28:16;;;;;;;16.75;4.93;;;;;;;6.35;100.00;100458.94;1030774;28;20697;-75
2023/03/26 02:28:48;;;;;;;18.15;4.43;;;;;;;6.34;100.00;100451.22;1032003;28;20341;-74
2023/03/26 02:29:20;;;;;;;31.23;5.72;;;;;;;6.32;100.00;100459.34;1032491;28;20305;-74
2023/03/26 02:29:53;;;;;;;16.85;4.85;;;;;;;6.30;100.00;100458.72;1035399;28;20304;-75
2023/03/26 02:30:28;;;;;;;12.68;4.78;;;;;;;6.32;100.00;100459.34;1034202;28;20321;-75
2023/03/26 02:31:02;;;;;;;20.58;4.50;;;;;;;6.32;100.00;100454.06;1039054;28;20868;-74
2023/03/26 02:31:34;;;;;;;19.15;4.60;;;;;;;6.37;100.00;100456.91;1035053;28;20794;-75
2023/03/26 02:32:07;;;;;;;20.65;4.25;;;;;;;6.34;100.00;100451.22;1031696;28;20301;-75
2023/03/26 02:32:39;;;;;;;16.80;5.30;;;;;;;6.30;100.00;100450.81;1033984;28;20845;-75
2023/03/26 02:33:14;;;;;;;19.15;6.05;;;;;;;6.30;100.00;100447.31;1029817;28;20305;-75
2023/03/26 02:33:46;;;;;;;18.95;5.10;;;;;;;6.48;100.00;100452.88;1037574;28;20718;-75
2023/03/26 02:34:19;;;;;;;20.00;4.55;;;;;;;6.70;100.00;100451.72;1036047;28;20312;-75
2023/03/26 02:34:56;;;;;;;13.63;4.00;;;;;;;6.71;100.00;100455.19;1036967;28;20312;-74
2023/03/26 02:35:28;;;;;;;17.17;5.30;;;;;;;6.70;100.00;100449.06;1035161;28;20304;-75
2023/03/26 02:36:03;;;;;;;14.55;5.00;;;;;;;6.64;100.00;100451.72;1038507;28;20315;-75
2023/03/26 02:36:35;;;;;;;17.33;4.55;;;;;;;6.58;100.00;100450.69;1041039;28;20300;-75
2023/03/26 02:37:08;;;;;;;14.48;3.85;;;;;;;6.57;100.00;100453.50;1039629;28;20304;-75
2023/03/26 02:37:45;;;;;;;21.20;4.82;;;;;;;6.54;100.00;100453.91;1038208;28;20304;-75
2023/03/26 02:38:24;;;;;;;21.13;4.15;;;;;;;6.52;100.00;100459.41;1034817;28;20312;-75
2023/03/26 02:38:59;;;;;;;13.27;4.43;;;;;;;6.49;100.00;100459.78;1032780;28;20320;-75
2023/03/26 02:39:33;;;;;;;12.43;4.50;;;;;;;6.48;100.00;100458.97;1040175;28;20327;-74
2023/03/26 02:40:12;;;;;;;13.30;4.13;;;;;;;6.49;100.00;100450.03;1033436;28;20837;-75
2023/03/26 02:40:46;;;;;;;16.05;4.28;;;;;;;6.54;100.00;100451.25;1030838;28;20345;-74
2023/03/26 02:41:18;;;;;;;16.33;4.25;;;;;;;6.55;100.00;100458.19;1028474;28;20397;-75
2023/03/26 02:42:00;;;;;;;12.50;3.88;;;;;;;6.57;100.00;100451.66;1032287;28;20325;-75
2023/03/26 02:42:33;;;;;;;15.20;4.22;;;;;;;6.49;100.00;100450.03;1028990;28;20366;-75
2023/03/26 02:43:04;;;;;;;13.55;3.40;;;;;;;6.54;100.00;100461.84;1028484;28;20310;-75
2023/03/26 02:43:37;;;;;;;18.92;5.57;;;;;;;6.56;100.00;100459.81;1027664;28;20373;-74
2023/03/26 02:44:11;;;;;;;23.90;4.88;;;;;;;6.60;100.00;100455.78;1030952;28;20306;-75
2023/03/26 02:45:15;;;;;;;23.27;4.75;;;;;;;6.66;100.00;100454.97;1039575;28;20284;-75
2023/03/26 02:46:13;;;;;;;13.25;5.03;;;;;;;6.56;100.00;100454.53;1030282;28;20286;-75
2023/03/26 02:46:56;;;;;;;10.23;4.78;;;;;;;6.56;100.00;100454.53;1030833;28;20709;-75